logo
Search for airport 
image banner adimage banner adimage banner ad
image banner ad

UBEE - Yevlakh Airport

Located in Yevlakh, Azerbaijan

ICAO - UBEE, IATA -

Data provided by Airmate  

General information

Coordinates: N40°38'9" E47°8'16"
Elevation is 53 feet MSL.
Magnetic variation is 6° East
View others Airports in Yevlax

Operational data

Special qualification required
Current time UTC:
Current local time:
Weather
METAR: UBEE 021700Z 30009KT 3500 BR OVC032 06/05 Q1012 NOSIG
TAF: TAF UBEE 021400Z 0215/0224 VRB04KT 3000 BR OVC010 TEMPO 0216/0221 28008KT -RASN OVC007
View NOTAMs / SUP AIP / TFR affecting this airport [VIEW]
Communications frequencies: [VIEW]

Runways:

RWY identifierQFULength (ft)Width (ft)SurfaceLDA (ft)
12129°7874131CONC+ASPH7874
30309°7874131CONC+ASPH7874

Airport contact information

Address: Yevlakh Azerbaijan

Satellite view of UBEE